sensor_id;sensor_type;location;lat;lon;timestamp;pressure;altitude;pressure_sealevel;temperature;humidity
12987;BME280;58897;51.960;5.582;2023-02-26T00:00:08;101618.59;;;1.52;100.00
12987;BME280;58897;51.960;5.582;2023-02-26T00:02:38;101620.91;;;1.58;100.00
12987;BME280;58897;51.960;5.582;2023-02-26T00:05:05;101628.75;;;1.61;100.00
12987;BME280;58897;51.960;5.582;2023-02-26T00:07:32;101624.09;;;1.49;100.00
12987;BME280;58897;51.960;5.582;2023-02-26T00:09:59;101625.06;;;1.48;100.00
12987;BME280;58897;51.960;5.582;2023-02-26T00:12:28;101626.75;;;1.49;100.00
12987;BME280;58897;51.960;5.582;2023-02-26T00:14:55;101627.44;;;1.52;100.00
12987;BME280;58897;51.960;5.582;2023-02-26T00:19:54;101639.81;;;1.38;100.00
12987;BME280;58897;51.960;5.582;2023-02-26T00:22:21;101637.66;;;1.29;100.00
12987;BME280;58897;51.960;5.582;2023-02-26T00:24:48;101640.50;;;1.25;100.00
12987;BME280;58897;51.960;5.582;2023-02-26T00:27:14;101647.38;;;1.14;100.00
12987;BME280;58897;51.960;5.582;2023-02-26T00:29:41;101658.31;;;1.08;100.00
12987;BME280;58897;51.960;5.582;2023-02-26T00:32:08;101655.22;;;1.00;100.00
12987;BME280;58897;51.960;5.582;2023-02-26T00:34:35;101668.28;;;1.04;100.00
12987;BME280;58897;51.960;5.582;2023-02-26T00:42:21;101680.41;;;0.77;100.00
12987;BME280;58897;51.960;5.582;2023-02-26T00:44:48;101681.09;;;0.81;100.00
12987;BME280;58897;51.960;5.582;2023-02-26T00:47:41;101681.94;;;0.81;100.00
12987;BME280;58897;51.960;5.582;2023-02-26T00:53:01;101685.41;;;0.83;100.00
12987;BME280;58897;51.960;5.582;2023-02-26T00:55:29;101682.59;;;0.69;100.00
12987;BME280;58897;51.960;5.582;2023-02-26T00:57:55;101690.81;;;0.65;100.00
12987;BME280;58897;51.960;5.582;2023-02-26T01:00:22;101688.78;;;0.70;100.00
12987;BME280;58897;51.960;5.582;2023-02-26T01:02:49;101686.59;;;0.60;100.00
12987;BME280;58897;51.960;5.582;2023-02-26T01:05:17;101684.34;;;0.70;100.00
12987;BME280;58897;51.960;5.582;2023-02-26T01:08:12;101681.81;;;0.67;100.00
12987;BME280;58897;51.960;5.582;2023-02-26T01:10:40;101682.06;;;0.63;100.00
12987;BME280;58897;51.960;5.582;2023-02-26T01:13:07;101682.75;;;0.66;100.00
12987;BME280;58897;51.960;5.582;2023-02-26T01:15:34;101679.16;;;0.67;100.00
12987;BME280;58897;51.960;5.582;2023-02-26T01:20:39;101680.41;;;0.60;100.00
12987;BME280;58897;51.960;5.582;2023-02-26T01:23:22;101681.66;;;0.53;100.00
12987;BME280;58897;51.960;5.582;2023-02-26T01:25:54;101682.44;;;0.55;100.00
12987;BME280;58897;51.960;5.582;2023-02-26T01:28:24;101683.56;;;0.51;100.00
12987;BME280;58897;51.960;5.582;2023-02-26T01:30:57;101695.34;;;0.45;100.00
12987;BME280;58897;51.960;5.582;2023-02-26T01:42:03;101715.13;;;0.40;100.00
12987;BME280;58897;51.960;5.582;2023-02-26T01:47:40;101710.84;;;0.37;100.00
12987;BME280;58897;51.960;5.582;2023-02-26T01:50:16;101709.66;;;0.43;100.00
12987;BME280;58897;51.960;5.582;2023-02-26T01:55:14;101719.59;;;0.39;100.00
12987;BME280;58897;51.960;5.582;2023-02-26T01:57:42;101719.97;;;0.32;100.00
12987;BME280;58897;51.960;5.582;2023-02-26T02:00:10;101718.91;;;0.36;100.00
12987;BME280;58897;51.960;5.582;2023-02-26T02:02:37;101730.31;;;0.38;100.00
12987;BME280;58897;51.960;5.582;2023-02-26T02:05:17;101724.91;;;0.39;100.00
12987;BME280;58897;51.960;5.582;2023-02-26T02:07:46;101731.56;;;0.31;100.00
12987;BME280;58897;51.960;5.582;2023-02-26T02:10:13;101730.94;;;0.43;100.00
12987;BME280;58897;51.960;5.582;2023-02-26T02:16:11;101736.16;;;0.27;100.00
12987;BME280;58897;51.960;5.582;2023-02-26T02:18:52;101747.59;;;0.11;100.00
12987;BME280;58897;51.960;5.582;2023-02-26T02:21:43;101749.97;;;0.17;100.00
12987;BME280;58897;51.960;5.582;2023-02-26T02:30:37;101753.78;;;0.11;100.00
12987;BME280;58897;51.960;5.582;2023-02-26T02:33:15;101760.25;;;0.06;100.00
12987;BME280;58897;51.960;5.582;2023-02-26T02:35:49;101763.72;;;0.08;100.00
12987;BME280;58897;51.960;5.582;2023-02-26T02:38:41;101769.84;;;-0.09;100.00
12987;BME280;58897;51.960;5.582;2023-02-26T02:41:15;101758.31;;;0.09;100.00
12987;BME280;58897;51.960;5.582;2023-02-26T02:43:45;101764.59;;;-0.11;100.00
12987;BME280;58897;51.960;5.582;2023-02-26T02:46:20;101767.72;;;-0.03;100.00
12987;BME280;58897;51.960;5.582;2023-02-26T02:49:01;101766.66;;;0.02;100.00
12987;BME280;58897;51.960;5.582;2023-02-26T02:51:36;101777.28;;;0.02;100.00
12987;BME280;58897;51.960;5.582;2023-02-26T02:54:17;101773.22;;;-0.06;100.00
12987;BME280;58897;51.960;5.582;2023-02-26T02:56:50;101770.03;;;0.05;100.00
12987;BME280;58897;51.960;5.582;2023-02-26T02:59:22;101773.34;;;-0.09;100.00
12987;BME280;58897;51.960;5.582;2023-02-26T03:01:57;101787.81;;;0.03;100.00
12987;BME280;58897;51.960;5.582;2023-02-26T03:04:26;101779.66;;;0.08;100.00
12987;BME280;58897;51.960;5.582;2023-02-26T03:06:52;101786.75;;;0.07;100.00
12987;BME280;58897;51.960;5.582;2023-02-26T03:09:19;101789.66;;;0.03;100.00
12987;BME280;58897;51.960;5.582;2023-02-26T03:11:45;101795.25;;;-0.04;100.00
12987;BME280;58897;51.960;5.582;2023-02-26T03:14:13;101797.19;;;-0.07;100.00
12987;BME280;58897;51.960;5.582;2023-02-26T03:17:01;101797.13;;;-0.06;100.00
12987;BME280;58897;51.960;5.582;2023-02-26T03:25:39;101804.28;;;-0.08;100.00
12987;BME280;58897;51.960;5.582;2023-02-26T03:28:18;101817.28;;;-0.20;100.00
12987;BME280;58897;51.960;5.582;2023-02-26T03:36:46;101817.22;;;-0.19;100.00
12987;BME280;58897;51.960;5.582;2023-02-26T03:39:30;101824.88;;;-0.50;100.00
12987;BME280;58897;51.960;5.582;2023-02-26T03:44:40;101828.38;;;-0.31;100.00
12987;BME280;58897;51.960;5.582;2023-02-26T03:47:11;101835.56;;;-0.33;100.00
12987;BME280;58897;51.960;5.582;2023-02-26T03:49:47;101835.19;;;-0.44;100.00
12987;BME280;58897;51.960;5.582;2023-02-26T03:52:14;101833.84;;;-0.34;100.00
12987;BME280;58897;51.960;5.582;2023-02-26T03:54:54;101836.31;;;-0.29;100.00
12987;BME280;58897;51.960;5.582;2023-02-26T03:57:23;101842.19;;;-0.62;100.00
12987;BME280;58897;51.960;5.582;2023-02-26T03:59:49;101844.88;;;-0.43;100.00
12987;BME280;58897;51.960;5.582;2023-02-26T04:02:19;101844.53;;;-0.35;100.00
12987;BME280;58897;51.960;5.582;2023-02-26T04:07:20;101855.25;;;-0.37;100.00
12987;BME280;58897;51.960;5.582;2023-02-26T04:09:49;101859.22;;;-0.47;100.00
12987;BME280;58897;51.960;5.582;2023-02-26T04:12:24;101855.25;;;-0.37;100.00
12987;BME280;58897;51.960;5.582;2023-02-26T04:14:51;101872.66;;;-0.50;100.00
12987;BME280;58897;51.960;5.582;2023-02-26T04:17:17;101870.78;;;-0.48;100.00
12987;BME280;58897;51.960;5.582;2023-02-26T04:19:44;101875.97;;;-0.45;100.00
12987;BME280;58897;51.960;5.582;2023-02-26T04:22:10;101880.31;;;-0.44;100.00
12987;BME280;58897;51.960;5.582;2023-02-26T04:24:37;101874.56;;;-0.53;100.00
12987;BME280;58897;51.960;5.582;2023-02-26T04:27:04;101877.97;;;-0.50;100.00
12987;BME280;58897;51.960;5.582;2023-02-26T04:29:30;101885.09;;;-0.52;100.00
12987;BME280;58897;51.960;5.582;2023-02-26T04:31:57;101886.91;;;-0.52;100.00
12987;BME280;58897;51.960;5.582;2023-02-26T04:34:24;101886.72;;;-0.68;100.00
12987;BME280;58897;51.960;5.582;2023-02-26T04:36:50;101891.69;;;-0.60;100.00
12987;BME280;58897;51.960;5.582;2023-02-26T04:39:17;101893.53;;;-0.63;100.00
12987;BME280;58897;51.960;5.582;2023-02-26T04:41:44;101904.22;;;-0.64;100.00
12987;BME280;58897;51.960;5.582;2023-02-26T04:44:11;101904.44;;;-0.69;100.00
12987;BME280;58897;51.960;5.582;2023-02-26T04:46:37;101906.97;;;-0.66;100.00
12987;BME280;58897;51.960;5.582;2023-02-26T04:49:04;101923.06;;;-0.70;100.00
12987;BME280;58897;51.960;5.582;2023-02-26T04:51:30;101921.19;;;-0.88;100.00
12987;BME280;58897;51.960;5.582;2023-02-26T04:53:57;101917.16;;;-0.77;100.00
12987;BME280;58897;51.960;5.582;2023-02-26T04:56:24;101914.31;;;-0.72;100.00
12987;BME280;58897;51.960;5.582;2023-02-26T04:58:51;101923.34;;;-0.76;100.00
12987;BME280;58897;51.960;5.582;2023-02-26T05:01:18;101926.31;;;-0.84;100.00
12987;BME280;58897;51.960;5.582;2023-02-26T05:03:44;101927.78;;;-0.77;100.00
12987;BME280;58897;51.960;5.582;2023-02-26T05:06:11;101929.66;;;-0.79;100.00
12987;BME280;58897;51.960;5.582;2023-02-26T05:08:37;101936.53;;;-0.75;100.00
12987;BME280;58897;51.960;5.582;2023-02-26T05:11:09;101938.63;;;-0.83;100.00
12987;BME280;58897;51.960;5.582;2023-02-26T05:13:35;101938.09;;;-0.91;100.00
12987;BME280;58897;51.960;5.582;2023-02-26T05:16:02;101942.16;;;-0.82;100.00
12987;BME280;58897;51.960;5.582;2023-02-26T05:18:28;101936.38;;;-0.92;100.00
12987;BME280;58897;51.960;5.582;2023-02-26T05:20:56;101945.56;;;-0.79;100.00
12987;BME280;58897;51.960;5.582;2023-02-26T05:23:23;101950.78;;;-0.77;100.00
12987;BME280;58897;51.960;5.582;2023-02-26T05:25:50;101955.63;;;-0.87;100.00
12987;BME280;58897;51.960;5.582;2023-02-26T05:28:16;101960.13;;;-0.89;100.00
12987;BME280;58897;51.960;5.582;2023-02-26T05:30:43;101955.88;;;-0.93;100.00
12987;BME280;58897;51.960;5.582;2023-02-26T05:33:09;101963.22;;;-0.99;100.00
12987;BME280;58897;51.960;5.582;2023-02-26T05:35:36;101962.97;;;-0.93;100.00
12987;BME280;58897;51.960;5.582;2023-02-26T05:38:03;101961.84;;;-0.88;100.00
12987;BME280;58897;51.960;5.582;2023-02-26T05:40:29;101961.94;;;-0.89;100.00
12987;BME280;58897;51.960;5.582;2023-02-26T05:42:56;101968.25;;;-0.93;100.00
12987;BME280;58897;51.960;5.582;2023-02-26T05:45:22;101967.59;;;-0.98;100.00
12987;BME280;58897;51.960;5.582;2023-02-26T05:47:49;101967.91;;;-1.06;100.00
12987;BME280;58897;51.960;5.582;2023-02-26T05:50:15;101972.03;;;-0.99;100.00
12987;BME280;58897;51.960;5.582;2023-02-26T05:52:42;101974.94;;;-1.05;100.00
12987;BME280;58897;51.960;5.582;2023-02-26T05:55:08;101976.00;;;-1.31;100.00
12987;BME280;58897;51.960;5.582;2023-02-26T05:57:35;101981.25;;;-1.07;100.00
12987;BME280;58897;51.960;5.582;2023-02-26T06:00:03;101984.50;;;-1.01;100.00
12987;BME280;58897;51.960;5.582;2023-02-26T06:02:30;101997.28;;;-1.10;100.00
12987;BME280;58897;51.960;5.582;2023-02-26T06:04:56;101994.81;;;-1.15;100.00
12987;BME280;58897;51.960;5.582;2023-02-26T06:07:23;101997.31;;;-1.12;100.00
12987;BME280;58897;51.960;5.582;2023-02-26T06:09:49;102006.56;;;-1.22;100.00
12987;BME280;58897;51.960;5.582;2023-02-26T06:12:16;102005.94;;;-1.07;100.00
12987;BME280;58897;51.960;5.582;2023-02-26T06:14:42;102007.41;;;-1.20;100.00
12987;BME280;58897;51.960;5.582;2023-02-26T06:17:09;102011.25;;;-1.07;100.00
12987;BME280;58897;51.960;5.582;2023-02-26T06:19:35;102011.41;;;-1.10;100.00
12987;BME280;58897;51.960;5.582;2023-02-26T06:22:02;102016.19;;;-1.19;100.00
12987;BME280;58897;51.960;5.582;2023-02-26T06:24:28;102021.03;;;-1.07;100.00
12987;BME280;58897;51.960;5.582;2023-02-26T06:26:55;102024.13;;;-1.19;100.00
12987;BME280;58897;51.960;5.582;2023-02-26T06:29:21;102030.38;;;-1.20;100.00
12987;BME280;58897;51.960;5.582;2023-02-26T06:31:48;102033.16;;;-1.23;100.00
12987;BME280;58897;51.960;5.582;2023-02-26T06:34:15;102030.94;;;-1.12;100.00
12987;BME280;58897;51.960;5.582;2023-02-26T06:36:42;102041.03;;;-1.22;100.00
12987;BME280;58897;51.960;5.582;2023-02-26T06:39:09;102048.53;;;-1.10;100.00
12987;BME280;58897;51.960;5.582;2023-02-26T06:41:37;102049.22;;;-1.05;100.00
12987;BME280;58897;51.960;5.582;2023-02-26T06:44:04;102039.44;;;-1.26;100.00
12987;BME280;58897;51.960;5.582;2023-02-26T06:46:30;102057.81;;;-1.21;100.00
12987;BME280;58897;51.960;5.582;2023-02-26T06:48:57;102051.34;;;-1.14;100.00
12987;BME280;58897;51.960;5.582;2023-02-26T06:51:23;102052.03;;;-1.09;100.00
12987;BME280;58897;51.960;5.582;2023-02-26T06:53:50;102062.25;;;-1.22;100.00
12987;BME280;58897;51.960;5.582;2023-02-26T06:56:16;102066.63;;;-1.21;100.00
12987;BME280;58897;51.960;5.582;2023-02-26T06:58:43;102059.47;;;-1.19;100.00
12987;BME280;58897;51.960;5.582;2023-02-26T07:01:09;102070.66;;;-1.11;100.00
12987;BME280;58897;51.960;5.582;2023-02-26T07:03:36;102078.00;;;-1.17;100.00
12987;BME280;58897;51.960;5.582;2023-02-26T07:06:03;102077.22;;;-0.98;100.00
12987;BME280;58897;51.960;5.582;2023-02-26T07:08:49;102084.09;;;-0.94;100.00
12987;BME280;58897;51.960;5.582;2023-02-26T07:11:16;102085.31;;;-0.79;100.00
12987;BME280;58897;51.960;5.582;2023-02-26T07:13:42;102090.94;;;-0.87;100.00
12987;BME280;58897;51.960;5.582;2023-02-26T07:16:09;102093.28;;;-0.79;100.00
12987;BME280;58897;51.960;5.582;2023-02-26T07:18:36;102099.81;;;-0.66;100.00
12987;BME280;58897;51.960;5.582;2023-02-26T07:21:03;102110.34;;;-0.65;100.00
12987;BME280;58897;51.960;5.582;2023-02-26T07:23:30;102109.88;;;-0.52;100.00
12987;BME280;58897;51.960;5.582;2023-02-26T07:25:57;102112.91;;;-0.62;100.00
12987;BME280;58897;51.960;5.582;2023-02-26T07:28:23;102109.56;;;-0.67;100.00
12987;BME280;58897;51.960;5.582;2023-02-26T07:30:53;102108.00;;;-0.72;100.00
12987;BME280;58897;51.960;5.582;2023-02-26T07:33:20;102108.34;;;-0.58;100.00
12987;BME280;58897;51.960;5.582;2023-02-26T07:35:47;102121.31;;;-0.50;100.00
12987;BME280;58897;51.960;5.582;2023-02-26T07:38:14;102121.78;;;-0.41;100.00
12987;BME280;58897;51.960;5.582;2023-02-26T07:40:40;102124.06;;;-0.32;100.00
12987;BME280;58897;51.960;5.582;2023-02-26T07:43:07;102132.97;;;-0.13;100.00
12987;BME280;58897;51.960;5.582;2023-02-26T07:45:33;102130.88;;;-0.05;100.00
12987;BME280;58897;51.960;5.582;2023-02-26T07:48:00;102129.16;;;-0.06;100.00
12987;BME280;58897;51.960;5.582;2023-02-26T07:50:26;102137.94;;;0.17;100.00
12987;BME280;58897;51.960;5.582;2023-02-26T07:52:53;102143.69;;;0.06;100.00
12987;BME280;58897;51.960;5.582;2023-02-26T07:55:19;102146.97;;;0.13;100.00
12987;BME280;58897;51.960;5.582;2023-02-26T07:57:46;102161.19;;;0.52;100.00
12987;BME280;58897;51.960;5.582;2023-02-26T08:00:13;102151.34;;;0.54;100.00
12987;BME280;58897;51.960;5.582;2023-02-26T08:02:40;102155.59;;;0.78;100.00
12987;BME280;58897;51.960;5.582;2023-02-26T08:05:07;102163.56;;;0.78;100.00
12987;BME280;58897;51.960;5.582;2023-02-26T08:07:33;102164.22;;;1.02;100.00
12987;BME280;58897;51.960;5.582;2023-02-26T08:10:00;102174.75;;;1.23;100.00
12987;BME280;58897;51.960;5.582;2023-02-26T08:12:27;102166.84;;;1.41;100.00
12987;BME280;58897;51.960;5.582;2023-02-26T08:14:53;102168.78;;;1.37;100.00
12987;BME280;58897;51.960;5.582;2023-02-26T08:17:20;102179.00;;;1.28;100.00
12987;BME280;58897;51.960;5.582;2023-02-26T08:19:46;102177.84;;;1.14;100.00
12987;BME280;58897;51.960;5.582;2023-02-26T08:22:13;102194.75;;;1.13;100.00
12987;BME280;58897;51.960;5.582;2023-02-26T08:24:39;102185.84;;;1.14;100.00
12987;BME280;58897;51.960;5.582;2023-02-26T08:27:06;102200.44;;;1.24;100.00
12987;BME280;58897;51.960;5.582;2023-02-26T08:29:32;102196.00;;;1.25;100.00
12987;BME280;58897;51.960;5.582;2023-02-26T08:31:59;102199.81;;;1.38;100.00
12987;BME280;58897;51.960;5.582;2023-02-26T08:34:25;102198.94;;;1.19;100.00
12987;BME280;58897;51.960;5.582;2023-02-26T08:36:52;102203.97;;;1.25;100.00
12987;BME280;58897;51.960;5.582;2023-02-26T08:39:18;102203.44;;;1.54;100.00
12987;BME280;58897;51.960;5.582;2023-02-26T08:41:45;102202.53;;;1.91;100.00
12987;BME280;58897;51.960;5.582;2023-02-26T08:44:11;102213.31;;;2.07;100.00
12987;BME280;58897;51.960;5.582;2023-02-26T08:46:38;102201.66;;;2.26;100.00
12987;BME280;58897;51.960;5.582;2023-02-26T08:49:04;102208.66;;;2.63;100.00
12987;BME280;58897;51.960;5.582;2023-02-26T08:51:31;102212.13;;;3.46;100.00
12987;BME280;58897;51.960;5.582;2023-02-26T08:53:57;102205.59;;;4.28;100.00
12987;BME280;58897;51.960;5.582;2023-02-26T08:56:24;102210.03;;;5.30;100.00
12987;BME280;58897;51.960;5.582;2023-02-26T08:58:51;102204.75;;;5.71;100.00
12987;BME280;58897;51.960;5.582;2023-02-26T09:01:17;102212.53;;;6.02;100.00
12987;BME280;58897;51.960;5.582;2023-02-26T09:03:44;102215.66;;;6.35;100.00
12987;BME280;58897;51.960;5.582;2023-02-26T09:06:10;102225.50;;;6.61;100.00
12987;BME280;58897;51.960;5.582;2023-02-26T09:08:37;102236.59;;;6.69;100.00
12987;BME280;58897;51.960;5.582;2023-02-26T09:11:03;102234.13;;;6.92;99.91
12987;BME280;58897;51.960;5.582;2023-02-26T09:13:31;102233.72;;;6.98;97.13
12987;BME280;58897;51.960;5.582;2023-02-26T09:15:57;102233.34;;;7.65;96.11
12987;BME280;58897;51.960;5.582;2023-02-26T09:18:24;102241.38;;;7.78;89.61
12987;BME280;58897;51.960;5.582;2023-02-26T09:20:50;102242.56;;;8.10;88.87
12987;BME280;58897;51.960;5.582;2023-02-26T09:23:17;102243.50;;;8.45;84.34
12987;BME280;58897;51.960;5.582;2023-02-26T09:25:44;102242.19;;;8.27;74.76
12987;BME280;58897;51.960;5.582;2023-02-26T09:28:10;102243.69;;;8.19;70.00
12987;BME280;58897;51.960;5.582;2023-02-26T09:30:37;102246.13;;;8.34;64.59
12987;BME280;58897;51.960;5.582;2023-02-26T09:33:04;102245.38;;;8.56;59.41
12987;BME280;58897;51.960;5.582;2023-02-26T09:35:30;102245.06;;;9.06;58.51
12987;BME280;58897;51.960;5.582;2023-02-26T09:37:57;102252.41;;;8.69;62.46
12987;BME280;58897;51.960;5.582;2023-02-26T09:40:42;102251.91;;;8.64;58.72
12987;BME280;58897;51.960;5.582;2023-02-26T09:46:20;102262.75;;;8.28;52.21
12987;BME280;58897;51.960;5.582;2023-02-26T09:48:55;102248.88;;;9.70;52.84
12987;BME280;58897;51.960;5.582;2023-02-26T09:51:27;102244.38;;;9.49;52.44
12987;BME280;58897;51.960;5.582;2023-02-26T09:53:54;102255.41;;;9.46;50.06
12987;BME280;58897;51.960;5.582;2023-02-26T09:56:24;102241.50;;;9.94;49.10
12987;BME280;58897;51.960;5.582;2023-02-26T09:58:53;102249.78;;;10.25;48.42
12987;BME280;58897;51.960;5.582;2023-02-26T10:09:55;102269.63;;;10.46;45.26
12987;BME280;58897;51.960;5.582;2023-02-26T10:12:25;102267.94;;;10.97;45.97
12987;BME280;58897;51.960;5.582;2023-02-26T10:14:57;102275.75;;;11.42;46.06
12987;BME280;58897;51.960;5.582;2023-02-26T10:25:44;102268.22;;;11.25;44.95
12987;BME280;58897;51.960;5.582;2023-02-26T10:28:32;102275.50;;;9.64;44.99
12987;BME280;58897;51.960;5.582;2023-02-26T10:39:38;102296.22;;;10.19;45.43
12987;BME280;58897;51.960;5.582;2023-02-26T10:42:32;102296.53;;;9.25;45.51
12987;BME280;58897;51.960;5.582;2023-02-26T10:48:06;102313.63;;;9.48;51.12
12987;BME280;58897;51.960;5.582;2023-02-26T10:50:38;102312.06;;;7.80;53.49
12987;BME280;58897;51.960;5.582;2023-02-26T10:53:11;102322.84;;;7.42;60.83
12987;BME280;58897;51.960;5.582;2023-02-26T10:55:43;102324.94;;;9.64;51.51
12987;BME280;58897;51.960;5.582;2023-02-26T10:58:30;102320.59;;;7.74;56.05
12987;BME280;58897;51.960;5.582;2023-02-26T11:00:57;102321.97;;;7.67;57.46
12987;BME280;58897;51.960;5.582;2023-02-26T11:03:35;102327.38;;;8.28;57.46
12987;BME280;58897;51.960;5.582;2023-02-26T11:06:04;102318.09;;;8.80;54.57
12987;BME280;58897;51.960;5.582;2023-02-26T11:08:34;102318.66;;;8.96;50.95
12987;BME280;58897;51.960;5.582;2023-02-26T11:11:04;102323.09;;;8.73;55.78
12987;BME280;58897;51.960;5.582;2023-02-26T11:13:33;102332.31;;;8.58;58.59
12987;BME280;58897;51.960;5.582;2023-02-26T11:16:04;102327.50;;;9.77;53.31
12987;BME280;58897;51.960;5.582;2023-02-26T11:18:37;102320.94;;;8.89;50.39
12987;BME280;58897;51.960;5.582;2023-02-26T11:21:05;102315.69;;;9.22;53.66
12987;BME280;58897;51.960;5.582;2023-02-26T11:23:32;102302.97;;;10.88;47.09
12987;BME280;58897;51.960;5.582;2023-02-26T11:26:06;102307.19;;;11.63;43.62
12987;BME280;58897;51.960;5.582;2023-02-26T11:28:43;102302.34;;;11.57;44.83
12987;BME280;58897;51.960;5.582;2023-02-26T11:31:11;102283.91;;;12.12;44.64
12987;BME280;58897;51.960;5.582;2023-02-26T11:33:47;102295.53;;;11.42;43.18
12987;BME280;58897;51.960;5.582;2023-02-26T11:36:17;102301.06;;;12.31;41.86
12987;BME280;58897;51.960;5.582;2023-02-26T11:38:46;102284.84;;;12.89;40.83
12987;BME280;58897;51.960;5.582;2023-02-26T11:41:17;102297.56;;;12.98;41.60
12987;BME280;58897;51.960;5.582;2023-02-26T11:43:48;102293.63;;;12.33;41.21
12987;BME280;58897;51.960;5.582;2023-02-26T11:46:23;102288.66;;;13.44;40.70
12987;BME280;58897;51.960;5.582;2023-02-26T11:48:52;102294.09;;;12.48;39.67
12987;BME280;58897;51.960;5.582;2023-02-26T11:51:23;102289.00;;;12.05;38.87
12987;BME280;58897;51.960;5.582;2023-02-26T11:53:57;102283.41;;;12.94;39.61
12987;BME280;58897;51.960;5.582;2023-02-26T11:56:31;102295.09;;;12.47;39.78
12987;BME280;58897;51.960;5.582;2023-02-26T11:59:06;102281.44;;;12.77;39.36
12987;BME280;58897;51.960;5.582;2023-02-26T12:01:35;102277.53;;;13.74;38.90
12987;BME280;58897;51.960;5.582;2023-02-26T12:04:02;102279.25;;;13.29;38.69
12987;BME280;58897;51.960;5.582;2023-02-26T12:06:29;102287.22;;;13.77;39.49
12987;BME280;58897;51.960;5.582;2023-02-26T12:08:56;102274.75;;;13.56;39.52
12987;BME280;58897;51.960;5.582;2023-02-26T12:11:44;102285.09;;;13.80;39.15
12987;BME280;58897;51.960;5.582;2023-02-26T12:17:26;102285.66;;;14.38;38.34
12987;BME280;58897;51.960;5.582;2023-02-26T12:25:32;102275.97;;;14.26;40.13
12987;BME280;58897;51.960;5.582;2023-02-26T12:31:23;102283.13;;;12.97;40.88
12987;BME280;58897;51.960;5.582;2023-02-26T12:53:30;102263.50;;;13.32;38.85
12987;BME280;58897;51.960;5.582;2023-02-26T13:02:31;102266.13;;;13.24;38.10
12987;BME280;58897;51.960;5.582;2023-02-26T13:11:15;102265.81;;;12.41;36.84
12987;BME280;58897;51.960;5.582;2023-02-26T13:19:05;102275.69;;;12.42;38.22
12987;BME280;58897;51.960;5.582;2023-02-26T13:21:42;102263.97;;;13.28;36.98
12987;BME280;58897;51.960;5.582;2023-02-26T13:24:22;102264.88;;;12.61;37.95
12987;BME280;58897;51.960;5.582;2023-02-26T13:26:50;102271.84;;;12.54;39.48
12987;BME280;58897;51.960;5.582;2023-02-26T13:29:22;102269.97;;;11.56;39.09
12987;BME280;58897;51.960;5.582;2023-02-26T13:32:00;102252.31;;;12.51;39.23
12987;BME280;58897;51.960;5.582;2023-02-26T13:34:49;102257.16;;;12.37;40.35
12987;BME280;58897;51.960;5.582;2023-02-26T13:37:24;102262.44;;;12.77;40.16
12987;BME280;58897;51.960;5.582;2023-02-26T13:40:44;102263.00;;;12.43;38.00
12987;BME280;58897;51.960;5.582;2023-02-26T13:43:37;102246.53;;;11.96;39.83
12987;BME280;58897;51.960;5.582;2023-02-26T13:51:42;102263.72;;;11.35;39.92
12987;BME280;58897;51.960;5.582;2023-02-26T14:02:36;102267.41;;;12.44;40.18
12987;BME280;58897;51.960;5.582;2023-02-26T14:05:28;102266.47;;;11.65;41.73
12987;BME280;58897;51.960;5.582;2023-02-26T14:13:19;102255.47;;;11.87;42.41
12987;BME280;58897;51.960;5.582;2023-02-26T14:16:00;102252.47;;;11.09;42.74
12987;BME280;58897;51.960;5.582;2023-02-26T14:18:40;102254.75;;;11.95;43.39
12987;BME280;58897;51.960;5.582;2023-02-26T14:24:12;102257.47;;;11.95;43.06
12987;BME280;58897;51.960;5.582;2023-02-26T14:26:47;102258.69;;;11.51;42.72
12987;BME280;58897;51.960;5.582;2023-02-26T14:32:28;102247.00;;;10.79;43.98
12987;BME280;58897;51.960;5.582;2023-02-26T14:34:58;102257.41;;;10.63;45.01
12987;BME280;58897;51.960;5.582;2023-02-26T14:37:27;102257.44;;;9.98;49.87
12987;BME280;58897;51.960;5.582;2023-02-26T14:39:57;102256.44;;;10.21;48.97
12987;BME280;58897;51.960;5.582;2023-02-26T14:42:56;102273.31;;;9.80;47.77
12987;BME280;58897;51.960;5.582;2023-02-26T14:45:30;102265.16;;;10.02;49.34
12987;BME280;58897;51.960;5.582;2023-02-26T14:48:00;102259.63;;;10.15;49.54
12987;BME280;58897;51.960;5.582;2023-02-26T14:51:18;102269.34;;;9.73;47.87
12987;BME280;58897;51.960;5.582;2023-02-26T14:53:35;102274.88;;;9.27;49.67
12987;BME280;58897;51.960;5.582;2023-02-26T14:56:20;102274.97;;;9.14;51.92
12987;BME280;58897;51.960;5.582;2023-02-26T14:59:03;102279.09;;;8.96;57.81
12987;BME280;58897;51.960;5.582;2023-02-26T15:02:01;102274.41;;;8.52;52.01
12987;BME280;58897;51.960;5.582;2023-02-26T15:22:46;102283.22;;;7.82;65.39
12987;BME280;58897;51.960;5.582;2023-02-26T15:25:37;102283.56;;;7.65;64.04
12987;BME280;58897;51.960;5.582;2023-02-26T15:28:11;102283.38;;;7.42;63.36
12987;BME280;58897;51.960;5.582;2023-02-26T15:30:41;102287.91;;;7.42;62.42
12987;BME280;58897;51.960;5.582;2023-02-26T15:33:12;102289.41;;;7.21;64.76
12987;BME280;58897;51.960;5.582;2023-02-26T15:35:42;102286.50;;;7.11;60.08
12987;BME280;58897;51.960;5.582;2023-02-26T15:38:09;102278.53;;;7.10;63.60
12987;BME280;58897;51.960;5.582;2023-02-26T15:40:35;102292.50;;;7.02;66.29
12987;BME280;58897;51.960;5.582;2023-02-26T15:43:07;102289.06;;;7.00;63.97
12987;BME280;58897;51.960;5.582;2023-02-26T15:45:41;102293.22;;;6.92;70.83
12987;BME280;58897;51.960;5.582;2023-02-26T15:48:34;102289.94;;;6.61;65.72
12987;BME280;58897;51.960;5.582;2023-02-26T15:51:01;102292.09;;;6.69;67.31
12987;BME280;58897;51.960;5.582;2023-02-26T15:53:35;102300.06;;;6.83;71.16
12987;BME280;58897;51.960;5.582;2023-02-26T15:56:06;102301.22;;;6.66;69.35
12987;BME280;58897;51.960;5.582;2023-02-26T15:58:40;102305.38;;;6.84;70.09
12987;BME280;58897;51.960;5.582;2023-02-26T16:01:20;102311.50;;;6.60;71.04
12987;BME280;58897;51.960;5.582;2023-02-26T16:03:50;102304.59;;;6.70;80.67